createdAt,value
2018-06-03T00:02:16.088Z,21.11
2018-06-03T00:05:18.660Z,21.16
2018-06-03T00:08:21.210Z,21.24
2018-06-03T00:11:23.735Z,21.01
2018-06-03T00:14:26.281Z,21.12
2018-06-03T00:17:28.845Z,21.04
2018-06-03T00:20:43.103Z,21.11
2018-06-03T00:23:45.582Z,21.05
2018-06-03T00:26:48.119Z,21.14
2018-06-03T00:29:50.608Z,21.16
2018-06-03T00:32:53.108Z,21.00
2018-06-03T00:36:07.320Z,20.89
2018-06-03T00:39:09.904Z,21.10
2018-06-03T00:42:12.417Z,21.04
2018-06-03T00:45:14.926Z,21.09
2018-06-03T00:48:17.417Z,21.11
2018-06-03T00:51:19.914Z,21.07
2018-06-03T00:54:22.407Z,20.94
2018-06-03T00:57:24.928Z,21.06
2018-06-03T01:00:27.504Z,21.15
2018-06-03T01:03:30.011Z,20.96
2018-06-03T01:06:32.567Z,21.03
2018-06-03T01:09:35.043Z,20.98
2018-06-03T01:12:38.335Z,21.03
2018-06-03T01:15:40.842Z,21.07
2018-06-03T01:18:43.452Z,20.95
2018-06-03T01:21:45.967Z,21.09
2018-06-03T01:24:48.466Z,21.06
2018-06-03T01:27:50.951Z,21.06
2018-06-03T01:30:53.458Z,21.01
2018-06-03T01:33:55.974Z,20.88
2018-06-03T01:36:58.493Z,20.92
2018-06-03T01:40:00.966Z,20.92
2018-06-03T01:43:03.486Z,20.88
2018-06-03T01:46:05.990Z,21.00
2018-06-03T01:49:08.480Z,20.96
2018-06-03T01:52:11.003Z,20.98
2018-06-03T01:55:13.524Z,21.01
2018-06-03T01:58:16.012Z,21.03
2018-06-03T02:01:18.494Z,20.99
2018-06-03T02:04:20.986Z,20.63
2018-06-03T02:07:23.479Z,20.77
2018-06-03T02:10:25.983Z,20.85
2018-06-03T02:13:28.475Z,20.97
2018-06-03T02:16:31.053Z,20.91
2018-06-03T02:19:33.572Z,20.85
2018-06-03T02:22:36.090Z,20.88
2018-06-03T02:25:38.628Z,20.84
2018-06-03T02:28:41.132Z,20.94
2018-06-03T02:31:43.653Z,20.96
2018-06-03T02:34:46.164Z,20.86
2018-06-03T02:37:48.667Z,20.94
2018-06-03T02:40:51.202Z,20.59
2018-06-03T02:43:53.703Z,20.72
2018-06-03T02:46:56.203Z,20.79
2018-06-03T02:49:58.719Z,20.88
2018-06-03T02:53:01.240Z,20.84
2018-06-03T02:56:03.730Z,20.87
2018-06-03T02:59:06.252Z,20.83
2018-06-03T03:02:08.731Z,20.76
2018-06-03T03:05:11.244Z,20.90
2018-06-03T03:08:13.751Z,20.87
2018-06-03T03:11:16.219Z,21.04
2018-06-03T03:14:18.703Z,20.97
2018-06-03T03:17:21.209Z,20.94
2018-06-03T03:20:23.689Z,20.78
2018-06-03T03:23:26.179Z,20.78
2018-06-03T03:26:28.658Z,20.85
2018-06-03T03:29:31.183Z,20.81
2018-06-03T03:32:33.666Z,20.86
2018-06-03T03:35:36.165Z,20.76
2018-06-03T03:38:38.690Z,20.82
2018-06-03T03:41:41.185Z,20.87
2018-06-03T03:44:43.663Z,20.86
2018-06-03T03:47:46.886Z,20.90
2018-06-03T03:50:49.358Z,20.91
2018-06-03T03:53:51.854Z,20.87
2018-06-03T03:56:54.341Z,20.79
2018-06-03T03:59:56.836Z,20.95
2018-06-03T04:02:59.351Z,20.86
2018-06-03T04:06:01.818Z,20.86
2018-06-03T04:09:04.320Z,20.91
2018-06-03T04:12:06.815Z,20.86
2018-06-03T04:15:09.333Z,20.99
2018-06-03T04:18:11.947Z,21.03
2018-06-03T04:21:14.438Z,20.79
2018-06-03T04:24:16.917Z,20.72
2018-06-03T04:27:19.411Z,20.70
2018-06-03T04:30:21.898Z,20.82
2018-06-03T04:33:24.378Z,20.83
2018-06-03T04:36:26.954Z,20.94
2018-06-03T04:39:29.461Z,20.89
2018-06-03T04:42:31.933Z,20.88
2018-06-03T04:45:34.454Z,20.99
2018-06-03T04:48:36.943Z,21.05
2018-06-03T04:51:39.435Z,21.06
2018-06-03T04:54:41.963Z,21.10
2018-06-03T04:57:44.463Z,21.13
2018-06-03T05:00:46.937Z,21.12
2018-06-03T05:03:49.443Z,21.10
2018-06-03T05:06:51.952Z,21.12
2018-06-03T05:09:54.487Z,21.07
2018-06-03T05:12:57.039Z,21.10
2018-06-03T05:15:59.554Z,21.10
2018-06-03T05:19:02.079Z,21.10
2018-06-03T05:22:04.587Z,21.13
2018-06-03T05:25:07.135Z,21.13
2018-06-03T05:28:09.663Z,21.12
2018-06-03T05:31:12.141Z,21.13
2018-06-03T05:34:14.629Z,21.23
2018-06-03T05:37:17.110Z,21.11
2018-06-03T05:40:19.628Z,21.13
2018-06-03T05:43:22.105Z,21.23
2018-06-03T05:46:24.675Z,21.19
2018-06-03T05:49:27.180Z,21.24
2018-06-03T05:52:29.673Z,20.98
2018-06-03T05:55:32.246Z,21.14
2018-06-03T05:58:34.748Z,21.18
2018-06-03T06:01:37.286Z,21.23
2018-06-03T06:04:39.825Z,21.20
2018-06-03T06:07:42.414Z,21.07
2018-06-03T06:10:44.964Z,20.89
2018-06-03T06:13:47.482Z,20.97
2018-06-03T06:16:50.017Z,21.08
2018-06-03T06:19:52.543Z,21.13
2018-06-03T06:22:55.171Z,21.14
2018-06-03T06:25:58.490Z,21.23
2018-06-03T06:29:01.006Z,21.21
2018-06-03T06:32:03.516Z,21.11
2018-06-03T06:35:06.058Z,21.02
2018-06-03T06:38:08.532Z,21.16
2018-06-03T06:41:11.696Z,21.20
2018-06-03T06:44:15.141Z,21.35
2018-06-03T06:47:17.648Z,21.15
2018-06-03T06:50:20.631Z,21.29
2018-06-03T06:53:23.150Z,21.40
2018-06-03T06:56:25.738Z,21.27
2018-06-03T06:59:28.250Z,21.31
2018-06-03T07:02:30.786Z,21.36
2018-06-03T07:05:33.346Z,21.41
2018-06-03T07:08:35.840Z,21.49
2018-06-03T07:11:38.362Z,21.50
2018-06-03T07:14:40.917Z,21.31
2018-06-03T07:17:43.559Z,21.41
2018-06-03T07:20:46.425Z,21.48
2018-06-03T07:23:48.931Z,21.48
2018-06-03T07:26:51.510Z,21.53
2018-06-03T07:29:54.125Z,21.49
2018-06-03T07:32:56.661Z,21.54
2018-06-03T07:35:59.180Z,21.55
2018-06-03T07:39:01.690Z,21.15
2018-06-03T07:42:04.224Z,21.15
2018-06-03T07:45:06.739Z,21.32
2018-06-03T07:48:09.276Z,21.39
2018-06-03T07:51:11.806Z,21.30
2018-06-03T07:54:14.358Z,21.40
2018-06-03T07:57:16.950Z,21.47
2018-06-03T08:00:19.592Z,21.49
2018-06-03T08:03:22.169Z,21.50
2018-06-03T08:06:24.704Z,21.53
2018-06-03T08:09:27.230Z,21.34
2018-06-03T08:12:29.776Z,21.29
2018-06-03T08:15:32.430Z,21.34
2018-06-03T08:18:34.956Z,21.48
2018-06-03T08:21:37.477Z,21.63
2018-06-03T08:24:40.039Z,21.71
2018-06-03T08:27:42.574Z,21.68
2018-06-03T08:30:45.224Z,21.78
2018-06-03T08:33:48.462Z,21.63
2018-06-03T08:36:50.988Z,21.57
2018-06-03T08:39:53.542Z,21.46
2018-06-03T08:42:56.101Z,21.48
2018-06-03T08:45:58.710Z,21.64
2018-06-03T08:49:02.022Z,21.65
2018-06-03T08:52:04.564Z,21.73
2018-06-03T08:55:07.073Z,21.84
2018-06-03T08:58:09.625Z,21.94
2018-06-03T09:01:12.225Z,21.97
2018-06-03T09:04:14.774Z,22.00
2018-06-03T09:07:17.294Z,21.89
2018-06-03T09:10:19.849Z,21.87
2018-06-03T09:13:24.158Z,21.83
2018-06-03T09:16:26.777Z,21.97
2018-06-03T09:19:29.307Z,21.94
2018-06-03T09:22:31.909Z,21.83
2018-06-03T09:25:34.446Z,21.89
2018-06-03T09:28:37.075Z,22.04
2018-06-03T09:31:39.644Z,21.81
2018-06-03T09:34:42.253Z,21.85
2018-06-03T09:37:44.801Z,21.76
2018-06-03T09:40:47.421Z,21.76
2018-06-03T09:43:50.037Z,21.58
2018-06-03T09:46:52.665Z,21.68
2018-06-03T09:49:55.181Z,21.54
2018-06-03T09:52:58.033Z,21.55
2018-06-03T09:56:00.589Z,21.41
2018-06-03T09:59:03.239Z,21.20
2018-06-03T10:02:05.803Z,20.99
2018-06-03T10:05:08.389Z,21.32
2018-06-03T10:08:10.964Z,21.35
2018-06-03T10:11:13.528Z,21.40
2018-06-03T10:14:16.175Z,21.43
2018-06-03T10:17:18.866Z,21.39
2018-06-03T10:20:21.444Z,21.42
2018-06-03T10:23:24.016Z,21.47
2018-06-03T10:26:26.609Z,21.28
2018-06-03T10:29:29.190Z,21.00
2018-06-03T10:32:31.754Z,20.86
2018-06-03T10:35:34.344Z,20.95
2018-06-03T10:38:36.991Z,21.17
2018-06-03T10:41:40.700Z,21.26
2018-06-03T10:44:43.329Z,21.32
2018-06-03T10:47:46.006Z,21.68
2018-06-03T10:50:48.563Z,21.77
2018-06-03T10:53:51.102Z,21.94
2018-06-03T10:56:54.800Z,21.81
2018-06-03T10:59:57.447Z,21.80
2018-06-03T11:03:00.040Z,22.05
2018-06-03T11:06:02.634Z,22.12
2018-06-03T11:09:05.208Z,21.88
2018-06-03T11:12:07.747Z,22.09
2018-06-03T11:15:10.270Z,21.98
2018-06-03T11:18:12.908Z,22.05
2018-06-03T11:21:15.466Z,22.03
2018-06-03T11:24:18.623Z,21.88
2018-06-03T11:27:21.226Z,21.96
2018-06-03T11:30:23.788Z,21.93
2018-06-03T11:33:26.366Z,22.01
2018-06-03T11:36:28.925Z,21.92
2018-06-03T11:39:31.530Z,21.82
2018-06-03T11:42:34.104Z,22.04
2018-06-03T11:45:42.181Z,22.06
2018-06-03T11:48:44.826Z,21.92
2018-06-03T11:51:47.851Z,21.88
2018-06-03T11:54:50.910Z,21.95
2018-06-03T11:57:55.558Z,22.05
2018-06-03T12:01:06.367Z,22.37
2018-06-03T12:04:09.176Z,22.73
2018-06-03T12:07:12.329Z,22.80
2018-06-03T12:10:16.353Z,22.78
2018-06-03T12:13:19.286Z,22.58
2018-06-03T12:16:22.212Z,22.90
2018-06-03T12:19:24.994Z,22.73
2018-06-03T12:22:28.675Z,22.72
2018-06-03T12:25:31.537Z,22.83
2018-06-03T12:28:34.391Z,22.88
2018-06-03T12:31:38.493Z,23.14
2018-06-03T12:34:41.629Z,23.59
2018-06-03T12:37:44.276Z,23.47
2018-06-03T12:40:46.819Z,23.47
2018-06-03T12:43:49.412Z,23.29
2018-06-03T12:46:51.957Z,23.45
2018-06-03T12:49:54.569Z,23.48
2018-06-03T12:52:58.282Z,23.56
2018-06-03T12:56:01.967Z,23.66
2018-06-03T12:59:04.682Z,23.12
2018-06-03T13:02:07.258Z,23.31
2018-06-03T13:05:09.856Z,23.38
2018-06-03T13:08:12.443Z,23.67
2018-06-03T13:11:15.045Z,23.57
2018-06-03T13:14:17.592Z,23.66
2018-06-03T13:17:20.198Z,23.64
2018-06-03T13:20:22.741Z,23.33
2018-06-03T13:23:25.400Z,23.52
2018-06-03T13:26:27.921Z,23.94
2018-06-03T13:29:30.563Z,24.02
2018-06-03T13:32:33.371Z,24.05
2018-06-03T13:35:35.968Z,24.07
2018-06-03T13:38:38.542Z,24.40
2018-06-03T13:41:41.094Z,24.46
2018-06-03T13:44:43.676Z,24.47
2018-06-03T13:47:46.223Z,24.55
2018-06-03T13:50:49.537Z,24.61
2018-06-03T13:53:52.121Z,24.66
2018-06-03T13:56:54.674Z,24.69
2018-06-03T13:59:57.271Z,24.77
2018-06-03T14:02:59.840Z,24.86
2018-06-03T14:06:02.399Z,24.91
2018-06-03T14:09:05.025Z,24.89
2018-06-03T14:12:07.581Z,24.96
2018-06-03T14:15:10.177Z,24.42
2018-06-03T14:18:12.783Z,24.33
2018-06-03T14:21:15.500Z,24.73
2018-06-03T14:24:18.088Z,24.52
2018-06-03T14:27:20.703Z,24.74
2018-06-03T14:30:23.371Z,24.72
2018-06-03T14:33:26.016Z,24.59
2018-06-03T14:36:28.656Z,24.46
2018-06-03T14:39:31.239Z,24.80
2018-06-03T14:42:33.774Z,24.73
2018-06-03T14:45:36.362Z,24.86
2018-06-03T14:48:38.946Z,24.85
2018-06-03T14:51:41.621Z,24.84
2018-06-03T14:54:44.246Z,24.84
2018-06-03T14:57:46.765Z,25.06
2018-06-03T15:00:49.417Z,24.85
2018-06-03T15:03:52.036Z,24.50
2018-06-03T15:06:54.560Z,24.69
2018-06-03T15:09:57.148Z,24.61
2018-06-03T15:12:59.718Z,24.68
2018-06-03T15:16:02.367Z,24.77
2018-06-03T15:19:04.992Z,25.02
2018-06-03T15:22:07.584Z,24.58
2018-06-03T15:25:10.213Z,24.54
2018-06-03T15:28:12.807Z,24.46
2018-06-03T15:31:15.529Z,24.02
2018-06-03T15:34:19.383Z,24.40
2018-06-03T15:37:22.093Z,24.43
2018-06-03T15:40:24.736Z,24.15
2018-06-03T15:43:27.406Z,24.49
2018-06-03T15:46:30.092Z,24.35
2018-06-03T15:49:32.655Z,24.60
2018-06-03T15:52:35.204Z,24.59
2018-06-03T15:55:37.852Z,24.36
2018-06-03T15:58:40.439Z,24.43
2018-06-03T16:01:43.137Z,24.28
2018-06-03T16:04:45.772Z,24.11
2018-06-03T16:07:48.443Z,24.06
2018-06-03T16:10:51.060Z,23.97
2018-06-03T16:13:53.677Z,24.08
2018-06-03T16:16:56.374Z,24.00
2018-06-03T16:19:59.168Z,24.29
2018-06-03T16:23:01.966Z,24.27
2018-06-03T16:26:04.665Z,24.27
2018-06-03T16:29:07.345Z,24.59
2018-06-03T16:32:10.023Z,24.34
2018-06-03T16:35:12.695Z,24.18
2018-06-03T16:38:15.859Z,24.16
2018-06-03T16:41:19.094Z,24.26
2018-06-03T16:44:23.234Z,24.35
2018-06-03T16:47:25.815Z,24.28
2018-06-03T16:50:28.979Z,24.37
2018-06-03T16:53:31.692Z,24.23
2018-06-03T16:56:34.467Z,24.10
2018-06-03T16:59:37.209Z,24.29
2018-06-03T17:02:39.806Z,24.23
2018-06-03T17:05:42.615Z,24.04
2018-06-03T17:08:45.226Z,23.96
2018-06-03T17:11:48.123Z,23.69
2018-06-03T17:14:51.687Z,23.70
2018-06-03T17:17:54.461Z,23.91
2018-06-03T17:20:57.163Z,23.94
2018-06-03T17:23:59.836Z,24.04
2018-06-03T17:27:02.635Z,24.09
2018-06-03T17:30:05.387Z,24.10
2018-06-03T17:33:08.157Z,24.12
2018-06-03T17:36:10.852Z,24.13
2018-06-03T17:39:13.717Z,24.11
2018-06-03T17:42:16.344Z,24.11
2018-06-03T17:45:18.993Z,24.20
2018-06-03T17:48:21.753Z,23.86
2018-06-03T17:51:24.544Z,23.98
2018-06-03T17:54:27.181Z,24.06
2018-06-03T17:57:30.487Z,24.12
2018-06-03T18:00:33.339Z,24.17
2018-06-03T18:03:36.095Z,24.18
2018-06-03T18:06:38.713Z,24.01
2018-06-03T18:09:41.365Z,24.05
2018-06-03T18:12:44.974Z,24.02
2018-06-03T18:15:49.459Z,24.03
2018-06-03T18:18:52.732Z,24.00
2018-06-03T18:21:57.596Z,24.14
2018-06-03T18:25:00.641Z,23.73
2018-06-03T18:28:04.448Z,23.71
2018-06-03T18:31:07.107Z,23.90
2018-06-03T18:34:09.852Z,24.02
2018-06-03T18:37:12.570Z,23.88
2018-06-03T18:40:15.153Z,23.93
2018-06-03T18:43:17.926Z,23.99
2018-06-03T18:46:20.672Z,23.74
2018-06-03T18:49:23.444Z,23.76
2018-06-03T18:52:26.329Z,23.85
2018-06-03T18:55:29.020Z,23.72
2018-06-03T18:58:31.696Z,23.76
2018-06-03T19:01:35.304Z,23.68
2018-06-03T19:04:37.971Z,23.58
2018-06-03T19:07:40.595Z,23.56
2018-06-03T19:10:43.452Z,23.44
2018-06-03T19:13:46.655Z,23.50
2018-06-03T19:16:49.292Z,23.45
2018-06-03T19:19:51.946Z,23.31
2018-06-03T19:22:55.835Z,23.26
2018-06-03T19:26:02.529Z,23.28
2018-06-03T19:29:05.975Z,23.26
2018-06-03T19:32:09.746Z,23.36
2018-06-03T19:35:14.353Z,23.21
2018-06-03T19:38:17.521Z,23.07
2018-06-03T19:41:21.414Z,22.97
2018-06-03T19:44:25.879Z,22.91
2018-06-03T19:47:30.426Z,22.99
2018-06-03T19:50:33.379Z,22.86
2018-06-03T19:53:37.417Z,22.75
2018-06-03T19:56:40.078Z,22.75
2018-06-03T19:59:43.202Z,22.92
2018-06-03T20:02:46.255Z,22.99
2018-06-03T20:05:49.138Z,22.80
2018-06-03T20:08:51.806Z,22.73
2018-06-03T20:11:54.459Z,22.71
2018-06-03T20:14:57.105Z,22.70
2018-06-03T20:17:59.803Z,22.71
2018-06-03T20:21:02.384Z,22.42
2018-06-03T20:24:05.035Z,22.51
2018-06-03T20:27:07.711Z,22.43
2018-06-03T20:30:10.505Z,22.44
2018-06-03T20:33:13.134Z,22.57
2018-06-03T20:36:15.781Z,22.38
2018-06-03T20:39:18.368Z,22.37
2018-06-03T20:42:21.026Z,22.32
2018-06-03T20:45:23.635Z,22.24
2018-06-03T20:48:26.246Z,22.33
2018-06-03T20:51:28.829Z,22.54
2018-06-03T20:55:22.502Z,22.13
2018-06-03T20:58:25.983Z,21.99
2018-06-03T21:01:29.351Z,22.00
2018-06-03T21:04:36.010Z,21.87
2018-06-03T21:07:39.539Z,21.96
2018-06-03T21:10:42.974Z,21.94
2018-06-03T21:13:46.442Z,21.84
2018-06-03T21:16:51.910Z,21.65
2018-06-03T21:19:55.565Z,21.63
2018-06-03T21:22:59.946Z,21.61
2018-06-03T21:26:03.331Z,21.70
2018-06-03T21:29:06.674Z,21.54
2018-06-03T21:32:09.951Z,21.70
2018-06-03T21:35:13.311Z,21.63
2018-06-03T21:38:16.695Z,21.72
2018-06-03T21:41:19.959Z,21.68
2018-06-03T21:44:23.290Z,21.53
2018-06-03T21:47:26.625Z,21.53
2018-06-03T21:50:29.991Z,21.48
2018-06-03T21:53:33.342Z,21.46
2018-06-03T21:56:36.671Z,21.55
2018-06-03T21:59:40.007Z,21.71
2018-06-03T22:02:43.506Z,21.83
2018-06-03T22:05:46.857Z,21.75
2018-06-03T22:08:50.174Z,21.70
2018-06-03T22:11:53.461Z,21.60
2018-06-03T22:14:56.736Z,21.70
2018-06-03T22:18:00.110Z,21.58
2018-06-03T22:21:03.362Z,21.40
2018-06-03T22:24:06.623Z,21.41
2018-06-03T22:27:09.807Z,21.26
2018-06-03T22:30:13.011Z,21.32
2018-06-03T22:33:16.303Z,21.38
2018-06-03T22:36:19.492Z,21.44
2018-06-03T22:39:22.829Z,21.27
2018-06-03T22:42:26.090Z,21.22
2018-06-03T22:45:29.353Z,21.12
2018-06-03T22:48:32.622Z,21.16
2018-06-03T22:51:35.877Z,21.06
2018-06-03T22:54:39.177Z,21.28
2018-06-03T22:57:48.902Z,21.13
2018-06-03T23:00:52.359Z,21.18
2018-06-03T23:03:55.644Z,21.24
2018-06-03T23:06:58.958Z,21.03
2018-06-03T23:10:02.291Z,21.00
2018-06-03T23:13:05.585Z,20.80
2018-06-03T23:16:08.824Z,20.74
2018-06-03T23:19:13.329Z,20.79
2018-06-03T23:22:16.559Z,20.73
2018-06-03T23:25:19.854Z,20.64
2018-06-03T23:28:23.625Z,20.77
2018-06-03T23:31:26.895Z,20.84
2018-06-03T23:34:30.112Z,20.67
2018-06-03T23:37:33.289Z,20.82
2018-06-03T23:40:36.541Z,20.65
2018-06-03T23:43:39.719Z,20.44
2018-06-03T23:46:42.978Z,20.41
2018-06-03T23:49:46.135Z,20.65
2018-06-03T23:52:49.376Z,20.44
2018-06-03T23:55:52.593Z,20.58
2018-06-03T23:58:55.757Z,20.73
